sensor_id;sensor_type;location;lat;lon;timestamp;pressure;altitude;pressure_sealevel;temperature;humidity
49459;BME280;35354;51.296;16.924;2023-08-12T00:02:14;100190.09;;;17.39;91.19
49459;BME280;35354;51.296;16.924;2023-08-12T00:04:39;100184.28;;;17.34;90.95
49459;BME280;35354;51.296;16.924;2023-08-12T00:07:04;100196.94;;;17.41;91.22
49459;BME280;35354;51.296;16.924;2023-08-12T00:09:30;100207.28;;;17.44;90.99
49459;BME280;35354;51.296;16.924;2023-08-12T00:11:55;100203.91;;;17.42;90.79
49459;BME280;35354;51.296;16.924;2023-08-12T00:14:20;100208.22;;;17.43;90.77
49459;BME280;35354;51.296;16.924;2023-08-12T00:16:45;100210.19;;;17.40;90.54
49459;BME280;35354;51.296;16.924;2023-08-12T00:19:11;100208.72;;;17.36;91.15
49459;BME280;35354;51.296;16.924;2023-08-12T00:21:36;100184.38;;;17.19;91.70
49459;BME280;35354;51.296;16.924;2023-08-12T00:24:02;100197.94;;;17.26;93.05
49459;BME280;35354;51.296;16.924;2023-08-12T00:26:27;100179.59;;;17.12;93.49
49459;BME280;35354;51.296;16.924;2023-08-12T00:28:52;100193.72;;;17.11;93.52
49459;BME280;35354;51.296;16.924;2023-08-12T00:31:18;100173.34;;;17.00;93.57
49459;BME280;35354;51.296;16.924;2023-08-12T00:33:43;100192.94;;;17.09;93.88
49459;BME280;35354;51.296;16.924;2023-08-12T00:36:09;100185.53;;;17.01;94.13
49459;BME280;35354;51.296;16.924;2023-08-12T00:38:34;100165.84;;;16.94;94.10
49459;BME280;35354;51.296;16.924;2023-08-12T00:41:00;100180.50;;;16.98;94.58
49459;BME280;35354;51.296;16.924;2023-08-12T00:43:25;100172.03;;;16.93;94.59
49459;BME280;35354;51.296;16.924;2023-08-12T00:45:51;100156.97;;;16.82;94.81
49459;BME280;35354;51.296;16.924;2023-08-12T00:48:17;100178.44;;;16.89;94.80
49459;BME280;35354;51.296;16.924;2023-08-12T00:50:43;100159.94;;;16.90;94.49
49459;BME280;35354;51.296;16.924;2023-08-12T00:53:09;100138.00;;;16.77;94.63
49459;BME280;35354;51.296;16.924;2023-08-12T00:55:36;100172.59;;;16.98;94.64
49459;BME280;35354;51.296;16.924;2023-08-12T00:58:02;100144.66;;;16.83;94.96
49459;BME280;35354;51.296;16.924;2023-08-12T01:00:28;100139.88;;;16.75;94.97
49459;BME280;35354;51.296;16.924;2023-08-12T01:02:56;100141.47;;;16.78;94.95
49459;BME280;35354;51.296;16.924;2023-08-12T01:05:21;100134.75;;;16.72;94.92
49459;BME280;35354;51.296;16.924;2023-08-12T01:07:47;100156.00;;;16.83;95.15
49459;BME280;35354;51.296;16.924;2023-08-12T01:10:14;100143.16;;;16.79;94.97
49459;BME280;35354;51.296;16.924;2023-08-12T01:12:54;100145.78;;;16.79;94.64
49459;BME280;35354;51.296;16.924;2023-08-12T01:15:21;100161.81;;;16.88;94.96
49459;BME280;35354;51.296;16.924;2023-08-12T01:17:49;100128.31;;;16.78;94.75
49459;BME280;35354;51.296;16.924;2023-08-12T01:20:20;100136.75;;;16.83;94.82
49459;BME280;35354;51.296;16.924;2023-08-12T01:23:07;100150.56;;;16.86;94.79
49459;BME280;35354;51.296;16.924;2023-08-12T01:25:33;100150.94;;;16.80;95.09
49459;BME280;35354;51.296;16.924;2023-08-12T01:27:58;100152.66;;;16.81;95.18
49459;BME280;35354;51.296;16.924;2023-08-12T01:30:24;100152.91;;;16.77;95.19
49459;BME280;35354;51.296;16.924;2023-08-12T01:33:13;100143.72;;;16.69;95.32
49459;BME280;35354;51.296;16.924;2023-08-12T01:35:48;100147.19;;;16.70;95.34
49459;BME280;35354;51.296;16.924;2023-08-12T01:38:16;100147.56;;;16.78;95.06
49459;BME280;35354;51.296;16.924;2023-08-12T01:40:44;100147.38;;;16.81;95.16
49459;BME280;35354;51.296;16.924;2023-08-12T01:43:11;100132.34;;;16.69;95.04
49459;BME280;35354;51.296;16.924;2023-08-12T01:45:37;100095.19;;;16.46;95.03
49459;BME280;35354;51.296;16.924;2023-08-12T01:48:03;100130.31;;;16.74;95.17
49459;BME280;35354;51.296;16.924;2023-08-12T01:50:28;100112.84;;;16.59;94.91
49459;BME280;35354;51.296;16.924;2023-08-12T01:52:54;100106.84;;;16.57;95.11
49459;BME280;35354;51.296;16.924;2023-08-12T01:55:19;100134.50;;;16.77;95.13
49459;BME280;35354;51.296;16.924;2023-08-12T01:57:44;100102.84;;;16.64;94.66
49459;BME280;35354;51.296;16.924;2023-08-12T02:00:10;100083.66;;;16.49;94.63
49459;BME280;35354;51.296;16.924;2023-08-12T02:02:35;100111.09;;;16.72;94.56
49459;BME280;35354;51.296;16.924;2023-08-12T02:05:01;100104.56;;;16.65;94.37
49459;BME280;35354;51.296;16.924;2023-08-12T02:07:26;100126.81;;;16.74;94.51
49459;BME280;35354;51.296;16.924;2023-08-12T02:09:51;100130.84;;;16.79;94.10
49459;BME280;35354;51.296;16.924;2023-08-12T02:12:17;100129.34;;;16.75;94.16
49459;BME280;35354;51.296;16.924;2023-08-12T02:14:42;100135.81;;;16.84;94.17
49459;BME280;35354;51.296;16.924;2023-08-12T02:17:07;100135.50;;;16.88;93.71
49459;BME280;35354;51.296;16.924;2023-08-12T02:19:33;100114.41;;;16.76;93.78
49459;BME280;35354;51.296;16.924;2023-08-12T02:21:59;100140.56;;;16.91;93.44
49459;BME280;35354;51.296;16.924;2023-08-12T02:24:25;100125.94;;;16.87;93.48
49459;BME280;35354;51.296;16.924;2023-08-12T02:26:50;100108.31;;;16.75;93.71
49459;BME280;35354;51.296;16.924;2023-08-12T02:29:16;100132.97;;;16.87;93.62
49459;BME280;35354;51.296;16.924;2023-08-12T02:31:41;100132.34;;;16.83;93.40
49459;BME280;35354;51.296;16.924;2023-08-12T02:34:07;100126.88;;;16.86;93.26
49459;BME280;35354;51.296;16.924;2023-08-12T02:36:32;100136.25;;;16.90;93.32
49459;BME280;35354;51.296;16.924;2023-08-12T02:38:58;100119.19;;;16.83;93.21
49459;BME280;35354;51.296;16.924;2023-08-12T02:41:23;100128.66;;;16.86;93.56
49459;BME280;35354;51.296;16.924;2023-08-12T02:43:48;100117.69;;;16.79;93.76
49459;BME280;35354;51.296;16.924;2023-08-12T02:46:14;100118.34;;;16.83;93.41
49459;BME280;35354;51.296;16.924;2023-08-12T02:48:41;100092.03;;;16.68;93.20
49459;BME280;35354;51.296;16.924;2023-08-12T02:51:06;100118.22;;;16.84;93.39
49459;BME280;35354;51.296;16.924;2023-08-12T02:53:31;100111.59;;;16.79;93.24
49459;BME280;35354;51.296;16.924;2023-08-12T02:55:57;100113.25;;;16.80;92.97
49459;BME280;35354;51.296;16.924;2023-08-12T02:58:22;100092.03;;;16.68;93.23
49459;BME280;35354;51.296;16.924;2023-08-12T03:00:47;100099.84;;;16.70;92.82
49459;BME280;35354;51.296;16.924;2023-08-12T03:03:13;100124.31;;;16.85;92.37
49459;BME280;35354;51.296;16.924;2023-08-12T03:05:38;100115.41;;;16.87;92.45
49459;BME280;35354;51.296;16.924;2023-08-12T03:08:04;100115.28;;;16.89;92.54
49459;BME280;35354;51.296;16.924;2023-08-12T03:10:30;100112.47;;;16.92;92.53
49459;BME280;35354;51.296;16.924;2023-08-12T03:12:56;100125.50;;;16.93;92.83
49459;BME280;35354;51.296;16.924;2023-08-12T03:15:21;100092.41;;;16.77;92.64
49459;BME280;35354;51.296;16.924;2023-08-12T03:17:47;100101.78;;;16.81;92.73
49459;BME280;35354;51.296;16.924;2023-08-12T03:20:12;100092.78;;;16.70;92.47
49459;BME280;35354;51.296;16.924;2023-08-12T03:22:38;100119.91;;;16.85;92.47
49459;BME280;35354;51.296;16.924;2023-08-12T03:25:04;100102.56;;;16.83;92.29
49459;BME280;35354;51.296;16.924;2023-08-12T03:27:30;100108.84;;;16.80;92.55
49459;BME280;35354;51.296;16.924;2023-08-12T03:29:55;100096.00;;;16.76;92.28
49459;BME280;35354;51.296;16.924;2023-08-12T03:32:20;100113.19;;;16.81;92.02
49459;BME280;35354;51.296;16.924;2023-08-12T03:34:46;100098.97;;;16.84;91.86
49459;BME280;35354;51.296;16.924;2023-08-12T03:37:11;100117.63;;;16.93;92.07
49459;BME280;35354;51.296;16.924;2023-08-12T03:39:37;100108.16;;;16.91;92.02
49459;BME280;35354;51.296;16.924;2023-08-12T03:42:02;100114.91;;;16.95;91.44
49459;BME280;35354;51.296;16.924;2023-08-12T03:44:27;100107.41;;;16.89;91.55
49459;BME280;35354;51.296;16.924;2023-08-12T03:46:53;100101.94;;;16.92;91.63
49459;BME280;35354;51.296;16.924;2023-08-12T03:49:18;100079.53;;;16.72;91.69
49459;BME280;35354;51.296;16.924;2023-08-12T03:51:43;100093.59;;;16.85;91.48
49459;BME280;35354;51.296;16.924;2023-08-12T03:54:09;100095.50;;;16.83;91.91
49459;BME280;35354;51.296;16.924;2023-08-12T03:56:34;100092.75;;;16.85;91.70
49459;BME280;35354;51.296;16.924;2023-08-12T03:58:59;100098.78;;;16.87;91.59
49459;BME280;35354;51.296;16.924;2023-08-12T04:01:25;100095.66;;;16.94;91.66
49459;BME280;35354;51.296;16.924;2023-08-12T04:03:50;100095.66;;;16.94;91.53
49459;BME280;35354;51.296;16.924;2023-08-12T04:06:15;100125.34;;;17.09;91.64
49459;BME280;35354;51.296;16.924;2023-08-12T04:08:41;100102.28;;;17.00;91.35
49459;BME280;35354;51.296;16.924;2023-08-12T04:11:06;100096.00;;;17.03;91.95
49459;BME280;35354;51.296;16.924;2023-08-12T04:13:32;100118.63;;;17.18;91.45
49459;BME280;35354;51.296;16.924;2023-08-12T04:15:57;100112.22;;;17.22;91.20
49459;BME280;35354;51.296;16.924;2023-08-12T04:18:22;100082.84;;;17.15;90.94
49459;BME280;35354;51.296;16.924;2023-08-12T04:20:49;100100.03;;;17.34;91.19
49459;BME280;35354;51.296;16.924;2023-08-12T04:23:15;100088.56;;;17.48;90.75
49459;BME280;35354;51.296;16.924;2023-08-12T04:25:44;100100.91;;;17.85;89.38
49459;BME280;35354;51.296;16.924;2023-08-12T04:28:10;100094.25;;;18.05;87.94
49459;BME280;35354;51.296;16.924;2023-08-12T04:30:41;100108.22;;;18.31;87.30
49459;BME280;35354;51.296;16.924;2023-08-12T04:33:06;100103.59;;;18.59;86.63
49459;BME280;35354;51.296;16.924;2023-08-12T04:35:31;100090.06;;;18.63;85.84
49459;BME280;35354;51.296;16.924;2023-08-12T04:37:57;100097.50;;;18.82;85.11
49459;BME280;35354;51.296;16.924;2023-08-12T04:40:23;100076.84;;;19.11;83.50
49459;BME280;35354;51.296;16.924;2023-08-12T04:42:48;100096.25;;;19.81;81.03
49459;BME280;35354;51.296;16.924;2023-08-12T04:45:13;100095.72;;;19.76;80.48
49459;BME280;35354;51.296;16.924;2023-08-12T04:47:39;100104.59;;;19.63;80.91
49459;BME280;35354;51.296;16.924;2023-08-12T04:50:05;100109.84;;;19.52;81.77
49459;BME280;35354;51.296;16.924;2023-08-12T04:52:31;100123.00;;;19.65;82.41
49459;BME280;35354;51.296;16.924;2023-08-12T04:54:57;100101.38;;;19.71;82.27
49459;BME280;35354;51.296;16.924;2023-08-12T04:57:22;100112.09;;;20.14;81.70
49459;BME280;35354;51.296;16.924;2023-08-12T04:59:47;100121.78;;;20.59;79.54
49459;BME280;35354;51.296;16.924;2023-08-12T05:02:13;100104.59;;;21.17;77.28
49459;BME280;35354;51.296;16.924;2023-08-12T05:04:38;100079.69;;;22.02;74.61
49459;BME280;35354;51.296;16.924;2023-08-12T05:07:03;100109.94;;;23.29;71.11
49459;BME280;35354;51.296;16.924;2023-08-12T05:09:29;100079.47;;;23.80;69.08
49459;BME280;35354;51.296;16.924;2023-08-12T05:11:54;100082.56;;;23.75;68.76
49459;BME280;35354;51.296;16.924;2023-08-12T05:14:19;100100.81;;;23.51;69.60
49459;BME280;35354;51.296;16.924;2023-08-12T05:16:45;100105.47;;;23.29;70.85
49459;BME280;35354;51.296;16.924;2023-08-12T05:19:10;100086.34;;;23.06;70.72
49459;BME280;35354;51.296;16.924;2023-08-12T05:21:35;100060.75;;;22.76;71.23
49459;BME280;35354;51.296;16.924;2023-08-12T05:24:01;100104.78;;;22.88;70.89
49459;BME280;35354;51.296;16.924;2023-08-12T05:26:26;100079.03;;;22.70;71.65
49459;BME280;35354;51.296;16.924;2023-08-12T05:28:51;100068.56;;;23.16;70.44
49459;BME280;35354;51.296;16.924;2023-08-12T05:31:17;100082.34;;;23.69;69.67
49459;BME280;35354;51.296;16.924;2023-08-12T05:33:42;100089.03;;;23.63;69.87
49459;BME280;35354;51.296;16.924;2023-08-12T05:36:08;100081.78;;;23.46;69.95
49459;BME280;35354;51.296;16.924;2023-08-12T05:38:34;100081.47;;;23.58;69.58
49459;BME280;35354;51.296;16.924;2023-08-12T05:40:59;100084.50;;;23.83;69.19
49459;BME280;35354;51.296;16.924;2023-08-12T05:43:24;100071.25;;;24.01;68.11
49459;BME280;35354;51.296;16.924;2023-08-12T05:45:50;100080.47;;;24.97;66.52
49459;BME280;35354;51.296;16.924;2023-08-12T05:48:15;100080.53;;;25.23;64.78
49459;BME280;35354;51.296;16.924;2023-08-12T05:50:40;100067.06;;;24.71;65.89
49459;BME280;35354;51.296;16.924;2023-08-12T05:53:06;100093.84;;;24.52;66.81
49459;BME280;35354;51.296;16.924;2023-08-12T05:55:33;100066.84;;;24.19;67.29
49459;BME280;35354;51.296;16.924;2023-08-12T05:57:59;100082.00;;;24.09;68.04
49459;BME280;35354;51.296;16.924;2023-08-12T06:00:25;100087.34;;;23.72;67.62
49459;BME280;35354;51.296;16.924;2023-08-12T06:02:50;100079.25;;;23.54;68.60
49459;BME280;35354;51.296;16.924;2023-08-12T06:05:15;100080.22;;;23.62;68.56
49459;BME280;35354;51.296;16.924;2023-08-12T06:07:41;100073.38;;;23.70;67.99
49459;BME280;35354;51.296;16.924;2023-08-12T06:10:06;100062.56;;;23.81;68.63
49459;BME280;35354;51.296;16.924;2023-08-12T06:12:32;100039.81;;;24.14;68.01
49459;BME280;35354;51.296;16.924;2023-08-12T06:14:57;100078.66;;;24.62;66.66
49459;BME280;35354;51.296;16.924;2023-08-12T06:17:23;100078.66;;;24.80;66.39
49459;BME280;35354;51.296;16.924;2023-08-12T06:19:48;100062.34;;;25.01;66.13
49459;BME280;35354;51.296;16.924;2023-08-12T06:22:13;100074.78;;;25.36;64.59
49459;BME280;35354;51.296;16.924;2023-08-12T06:24:39;100064.38;;;25.51;63.46
49459;BME280;35354;51.296;16.924;2023-08-12T06:27:04;100047.03;;;25.47;63.10
49459;BME280;35354;51.296;16.924;2023-08-12T06:29:30;100063.13;;;25.63;63.50
49459;BME280;35354;51.296;16.924;2023-08-12T06:31:55;100062.78;;;25.58;61.88
49459;BME280;35354;51.296;16.924;2023-08-12T06:34:20;100039.38;;;25.52;63.17
49459;BME280;35354;51.296;16.924;2023-08-12T06:36:46;100062.25;;;25.80;62.42
49459;BME280;35354;51.296;16.924;2023-08-12T06:39:11;100059.31;;;25.92;62.62
49459;BME280;35354;51.296;16.924;2023-08-12T06:41:36;100050.16;;;26.02;61.60
49459;BME280;35354;51.296;16.924;2023-08-12T06:44:02;100057.94;;;26.30;61.53
49459;BME280;35354;51.296;16.924;2023-08-12T06:46:29;100060.63;;;26.38;60.77
49459;BME280;35354;51.296;16.924;2023-08-12T06:48:55;100033.41;;;26.34;60.99
49459;BME280;35354;51.296;16.924;2023-08-12T06:51:21;100055.69;;;26.68;61.21
49459;BME280;35354;51.296;16.924;2023-08-12T06:53:46;100048.50;;;26.68;60.52
49459;BME280;35354;51.296;16.924;2023-08-12T06:56:11;100042.81;;;26.47;60.33
49459;BME280;35354;51.296;16.924;2023-08-12T06:58:37;100049.31;;;26.52;61.48
49459;BME280;35354;51.296;16.924;2023-08-12T07:01:02;100048.31;;;26.53;61.80
49459;BME280;35354;51.296;16.924;2023-08-12T07:03:27;100047.66;;;26.59;61.92
49459;BME280;35354;51.296;16.924;2023-08-12T07:05:54;100051.50;;;26.73;61.39
49459;BME280;35354;51.296;16.924;2023-08-12T07:08:19;100033.09;;;26.46;62.54
49459;BME280;35354;51.296;16.924;2023-08-12T07:10:45;100044.34;;;26.74;62.14
49459;BME280;35354;51.296;16.924;2023-08-12T07:13:10;100032.81;;;26.81;62.08
49459;BME280;35354;51.296;16.924;2023-08-12T07:15:35;100034.00;;;27.11;62.41
49459;BME280;35354;51.296;16.924;2023-08-12T07:18:01;100029.00;;;27.64;61.19
49459;BME280;35354;51.296;16.924;2023-08-12T07:20:27;100043.09;;;28.45;61.04
49459;BME280;35354;51.296;16.924;2023-08-12T07:22:52;100041.63;;;29.55;58.07
49459;BME280;35354;51.296;16.924;2023-08-12T07:25:17;100039.22;;;30.63;55.28
49459;BME280;35354;51.296;16.924;2023-08-12T07:27:43;100034.66;;;31.62;53.63
49459;BME280;35354;51.296;16.924;2023-08-12T07:30:08;100041.72;;;32.66;52.44
49459;BME280;35354;51.296;16.924;2023-08-12T07:32:36;100024.84;;;33.50;51.17
49459;BME280;35354;51.296;16.924;2023-08-12T07:35:02;100036.84;;;34.25;50.22
49459;BME280;35354;51.296;16.924;2023-08-12T07:37:28;100037.41;;;34.72;48.60
49459;BME280;35354;51.296;16.924;2023-08-12T07:39:54;100028.44;;;34.72;48.71
49459;BME280;35354;51.296;16.924;2023-08-12T07:42:19;100019.47;;;35.65;48.16
49459;BME280;35354;51.296;16.924;2023-08-12T07:44:45;100020.56;;;35.94;46.74
49459;BME280;35354;51.296;16.924;2023-08-12T07:47:11;100037.03;;;36.59;47.12
49459;BME280;35354;51.296;16.924;2023-08-12T07:49:37;100017.50;;;37.28;46.27
49459;BME280;35354;51.296;16.924;2023-08-12T07:52:03;100021.03;;;37.63;44.70
49459;BME280;35354;51.296;16.924;2023-08-12T07:54:29;100022.59;;;37.12;45.46
49459;BME280;35354;51.296;16.924;2023-08-12T07:56:54;100020.69;;;37.36;45.65
49459;BME280;35354;51.296;16.924;2023-08-12T07:59:20;100018.56;;;37.38;44.74
49459;BME280;35354;51.296;16.924;2023-08-12T08:01:45;100024.09;;;36.85;45.52
49459;BME280;35354;51.296;16.924;2023-08-12T08:04:11;100014.59;;;36.52;46.29
49459;BME280;35354;51.296;16.924;2023-08-12T08:06:36;100010.63;;;36.66;45.83
49459;BME280;35354;51.296;16.924;2023-08-12T08:09:02;100012.19;;;36.44;45.68
49459;BME280;35354;51.296;16.924;2023-08-12T08:11:29;100011.31;;;36.50;46.50
49459;BME280;35354;51.296;16.924;2023-08-12T08:13:54;100009.44;;;36.74;46.27
49459;BME280;35354;51.296;16.924;2023-08-12T08:16:19;100017.25;;;36.70;45.72
49459;BME280;35354;51.296;16.924;2023-08-12T08:18:45;99994.06;;;36.44;46.31
49459;BME280;35354;51.296;16.924;2023-08-12T08:21:10;100016.19;;;36.00;46.19
49459;BME280;35354;51.296;16.924;2023-08-12T08:23:35;100024.22;;;35.08;47.08
49459;BME280;35354;51.296;16.924;2023-08-12T08:26:01;100013.00;;;33.58;47.42
49459;BME280;35354;51.296;16.924;2023-08-12T08:28:26;99998.75;;;32.58;50.04
49459;BME280;35354;51.296;16.924;2023-08-12T08:30:51;100000.09;;;31.72;50.63
49459;BME280;35354;51.296;16.924;2023-08-12T08:33:17;99987.22;;;30.98;52.05
49459;BME280;35354;51.296;16.924;2023-08-12T08:35:42;99993.16;;;30.44;53.38
49459;BME280;35354;51.296;16.924;2023-08-12T08:38:07;100001.94;;;29.80;54.40
49459;BME280;35354;51.296;16.924;2023-08-12T08:40:33;99988.56;;;28.98;55.23
49459;BME280;35354;51.296;16.924;2023-08-12T08:43:02;99999.84;;;28.71;57.49
49459;BME280;35354;51.296;16.924;2023-08-12T08:45:29;100011.78;;;28.45;57.69
49459;BME280;35354;51.296;16.924;2023-08-12T08:47:57;99977.41;;;27.95;58.59
49459;BME280;35354;51.296;16.924;2023-08-12T08:50:24;100007.75;;;27.79;59.47
49459;BME280;35354;51.296;16.924;2023-08-12T08:52:51;100006.47;;;27.58;60.16
49459;BME280;35354;51.296;16.924;2023-08-12T08:55:17;100006.81;;;27.55;60.34
49459;BME280;35354;51.296;16.924;2023-08-12T08:57:43;100008.66;;;27.47;60.41
49459;BME280;35354;51.296;16.924;2023-08-12T09:00:10;100005.69;;;27.33;61.46
49459;BME280;35354;51.296;16.924;2023-08-12T09:02:36;100004.88;;;27.25;61.93
49459;BME280;35354;51.296;16.924;2023-08-12T09:05:03;100006.56;;;27.18;61.65
49459;BME280;35354;51.296;16.924;2023-08-12T09:07:31;99998.22;;;27.13;62.17
49459;BME280;35354;51.296;16.924;2023-08-12T09:09:58;99989.69;;;27.01;62.32
49459;BME280;35354;51.296;16.924;2023-08-12T09:12:25;100010.09;;;27.10;63.54
49459;BME280;35354;51.296;16.924;2023-08-12T09:14:51;99986.19;;;27.00;63.12
49459;BME280;35354;51.296;16.924;2023-08-12T09:17:16;99996.03;;;27.00;63.06
49459;BME280;35354;51.296;16.924;2023-08-12T09:19:42;99984.72;;;26.81;62.93
49459;BME280;35354;51.296;16.924;2023-08-12T09:22:08;99978.69;;;26.79;63.59
49459;BME280;35354;51.296;16.924;2023-08-12T09:24:36;99992.22;;;26.86;63.67
49459;BME280;35354;51.296;16.924;2023-08-12T09:27:02;99984.03;;;26.79;63.69
49459;BME280;35354;51.296;16.924;2023-08-12T09:29:32;99981.84;;;26.75;63.79
49459;BME280;35354;51.296;16.924;2023-08-12T09:34:35;99987.06;;;26.76;64.58
49459;BME280;35354;51.296;16.924;2023-08-12T09:37:01;99981.22;;;26.73;64.78
49459;BME280;35354;51.296;16.924;2023-08-12T09:39:28;99986.38;;;26.66;64.48
49459;BME280;35354;51.296;16.924;2023-08-12T09:41:54;99968.16;;;26.53;64.95
49459;BME280;35354;51.296;16.924;2023-08-12T09:44:20;99989.72;;;26.68;65.41
49459;BME280;35354;51.296;16.924;2023-08-12T09:46:47;99988.53;;;26.71;65.43
49459;BME280;35354;51.296;16.924;2023-08-12T09:49:12;99977.34;;;26.75;65.17
49459;BME280;35354;51.296;16.924;2023-08-12T09:51:38;99977.53;;;26.74;65.06
49459;BME280;35354;51.296;16.924;2023-08-12T09:54:05;99966.84;;;26.66;65.60
49459;BME280;35354;51.296;16.924;2023-08-12T09:56:36;99953.66;;;26.64;65.39
49459;BME280;35354;51.296;16.924;2023-08-12T09:59:07;99972.69;;;26.77;65.45
49459;BME280;35354;51.296;16.924;2023-08-12T10:01:33;99969.00;;;26.78;65.28
49459;BME280;35354;51.296;16.924;2023-08-12T10:03:59;99955.00;;;26.68;65.18
49459;BME280;35354;51.296;16.924;2023-08-12T10:06:25;99931.28;;;26.57;65.79
49459;BME280;35354;51.296;16.924;2023-08-12T10:08:51;99957.81;;;26.75;65.38
49459;BME280;35354;51.296;16.924;2023-08-12T10:11:17;99952.47;;;26.75;65.74
49459;BME280;35354;51.296;16.924;2023-08-12T10:13:43;99962.19;;;26.76;65.52
49459;BME280;35354;51.296;16.924;2023-08-12T10:16:09;99946.28;;;26.66;65.82
49459;BME280;35354;51.296;16.924;2023-08-12T10:18:36;99940.44;;;26.62;65.54
49459;BME280;35354;51.296;16.924;2023-08-12T10:21:03;99957.16;;;26.73;65.90
49459;BME280;35354;51.296;16.924;2023-08-12T10:23:29;99930.28;;;26.58;66.47
49459;BME280;35354;51.296;16.924;2023-08-12T10:25:56;99932.94;;;26.58;66.00
49459;BME280;35354;51.296;16.924;2023-08-12T10:28:22;99941.47;;;26.61;66.53
49459;BME280;35354;51.296;16.924;2023-08-12T10:30:48;99934.78;;;26.57;66.27
49459;BME280;35354;51.296;16.924;2023-08-12T10:33:14;99930.78;;;26.53;66.14
49459;BME280;35354;51.296;16.924;2023-08-12T10:35:47;99914.59;;;26.47;66.17
49459;BME280;35354;51.296;16.924;2023-08-12T10:38:17;99948.31;;;26.64;64.94
49459;BME280;35354;51.296;16.924;2023-08-12T10:40:43;99933.44;;;26.61;66.02
49459;BME280;35354;51.296;16.924;2023-08-12T10:43:08;99940.31;;;26.64;66.10
49459;BME280;35354;51.296;16.924;2023-08-12T10:45:47;99919.44;;;26.51;65.87
49459;BME280;35354;51.296;16.924;2023-08-12T10:48:17;99931.78;;;26.69;66.34
49459;BME280;35354;51.296;16.924;2023-08-12T10:50:48;99925.41;;;26.78;66.57
49459;BME280;35354;51.296;16.924;2023-08-12T10:53:26;99930.75;;;26.86;66.38
49459;BME280;35354;51.296;16.924;2023-08-12T10:56:00;99917.56;;;26.84;66.27
49459;BME280;35354;51.296;16.924;2023-08-12T10:58:45;99884.69;;;26.68;66.72
49459;BME280;35354;51.296;16.924;2023-08-12T11:01:17;99895.84;;;26.79;66.41
49459;BME280;35354;51.296;16.924;2023-08-12T11:03:43;99904.38;;;26.75;66.25
49459;BME280;35354;51.296;16.924;2023-08-12T11:06:12;99896.72;;;26.72;65.95
49459;BME280;35354;51.296;16.924;2023-08-12T11:08:46;99920.38;;;26.83;65.81
49459;BME280;35354;51.296;16.924;2023-08-12T11:11:22;99897.19;;;26.67;66.53
49459;BME280;35354;51.296;16.924;2023-08-12T11:13:56;99889.03;;;26.60;66.51
49459;BME280;35354;51.296;16.924;2023-08-12T11:16:37;99885.69;;;26.50;67.05
49459;BME280;35354;51.296;16.924;2023-08-12T11:19:03;99919.75;;;26.56;66.62
49459;BME280;35354;51.296;16.924;2023-08-12T11:21:29;99888.38;;;26.50;65.78
49459;BME280;35354;51.296;16.924;2023-08-12T11:23:56;99882.16;;;26.66;65.89
49459;BME280;35354;51.296;16.924;2023-08-12T11:26:23;99889.84;;;26.77;65.21
49459;BME280;35354;51.296;16.924;2023-08-12T11:28:49;99882.97;;;26.83;64.52
49459;BME280;35354;51.296;16.924;2023-08-12T11:31:15;99888.97;;;27.01;65.17
49459;BME280;35354;51.296;16.924;2023-08-12T11:33:41;99900.31;;;27.11;64.65
49459;BME280;35354;51.296;16.924;2023-08-12T11:36:07;99895.28;;;27.17;64.96
49459;BME280;35354;51.296;16.924;2023-08-12T11:38:32;99889.91;;;27.08;65.18
49459;BME280;35354;51.296;16.924;2023-08-12T11:41:00;99897.81;;;27.02;65.77
49459;BME280;35354;51.296;16.924;2023-08-12T11:43:28;99890.13;;;26.99;65.50
49459;BME280;35354;51.296;16.924;2023-08-12T11:45:55;99879.75;;;27.04;64.81
49459;BME280;35354;51.296;16.924;2023-08-12T11:48:21;99880.56;;;27.04;65.14
49459;BME280;35354;51.296;16.924;2023-08-12T11:50:46;99888.56;;;27.21;65.14
49459;BME280;35354;51.296;16.924;2023-08-12T11:53:12;99873.31;;;27.29;66.00
49459;BME280;35354;51.296;16.924;2023-08-12T11:55:38;99873.25;;;27.46;63.57
49459;BME280;35354;51.296;16.924;2023-08-12T11:58:05;99861.00;;;27.51;64.22
49459;BME280;35354;51.296;16.924;2023-08-12T12:00:30;99849.97;;;27.54;64.49
49459;BME280;35354;51.296;16.924;2023-08-12T12:02:57;99853.91;;;27.67;63.94
49459;BME280;35354;51.296;16.924;2023-08-12T12:05:27;99854.03;;;27.81;61.76
49459;BME280;35354;51.296;16.924;2023-08-12T12:07:53;99860.84;;;27.84;63.09
49459;BME280;35354;51.296;16.924;2023-08-12T12:10:39;99856.50;;;27.83;61.83
49459;BME280;35354;51.296;16.924;2023-08-12T12:13:05;99854.03;;;27.81;63.01
49459;BME280;35354;51.296;16.924;2023-08-12T12:15:31;99833.44;;;27.82;63.51
49459;BME280;35354;51.296;16.924;2023-08-12T12:18:03;99858.41;;;27.97;62.38
49459;BME280;35354;51.296;16.924;2023-08-12T12:20:28;99859.91;;;28.00;62.68
49459;BME280;35354;51.296;16.924;2023-08-12T12:22:54;99861.00;;;28.05;62.50
49459;BME280;35354;51.296;16.924;2023-08-12T12:25:21;99849.97;;;28.08;60.92
49459;BME280;35354;51.296;16.924;2023-08-12T12:27:47;99859.94;;;28.15;61.91
49459;BME280;35354;51.296;16.924;2023-08-12T12:30:13;99833.41;;;28.05;61.82
49459;BME280;35354;51.296;16.924;2023-08-12T12:32:40;99848.53;;;28.21;62.26
49459;BME280;35354;51.296;16.924;2023-08-12T12:35:06;99847.84;;;28.19;61.53
49459;BME280;35354;51.296;16.924;2023-08-12T12:37:35;99824.84;;;28.09;61.92
49459;BME280;35354;51.296;16.924;2023-08-12T12:40:01;99841.50;;;28.20;62.97
49459;BME280;35354;51.296;16.924;2023-08-12T12:42:28;99848.81;;;28.26;62.87